Aérodrome :
LOGIN :

S'inscrire | Disclaimer

   EN    FR    IT 

 










Légende :    VFR   VFR Marginal   IFR   IFR Intensif   IFR Très Intensif
Visi : 
Plafond : 
>= 8 km
>= 3000ft
5 à 8 km
1000 à 3000 ft
1500m à 5 km
500 à 1000 ft
800 à 1500m
200 à 500 ft
< 800m
< 200 ft
Symboles :   Orages  Brouillard  Fortes neiges  Fortes précipitations  Vent > 20 kt
SIGMETs :   Divers  Orages  Givrage  Turbulence  Onde Orograph.  Cendres Volcan.







- Altitude de l'aérodrome : 122 ft
- Code IATA : TXL


EDDT - Berlin Tegel Int.

DERNIER METAR :
  • 161350Z 24012KT CAVOK 16/M03 Q1024 NOSIG

METARs EXPIRÉS :
  • 161320Z 26009KT 220V280 CAVOK 16/M02 Q1025 NOSIG
  • 161250Z 24010KT CAVOK 16/M03 Q1025 NOSIG
  • 161220Z 23007KT CAVOK 15/M01 Q1025 NOSIG
  • 161150Z 22008KT 190V250 CAVOK 14/M02 Q1025 NOSIG
  • 161120Z 25008KT CAVOK 14/M02 Q1025 NOSIG
  • 161050Z 23008KT CAVOK 13/M02 Q1025 NOSIG

TAF TAF EDDT
Valide du 16 à 12h jusqu'au 17 à 12h UTC


161100Z 1612/1712 21005KT CAVOK
BECMG 1708/1710 15005KT
Pas de NOTAMs connus pour ce terrain.



MET'MAP, la Météo Aéronautique d'un coup d'oeil ! - Copyright ORBIFLY Décembre 2007 - Disclaimer

ORBIFLY MET'MAP TEAM :

Programmation & Développement : Alexandra Zaïnal
Conception & Développement : Baudouin d'Aumeries
Co-Programmation & Développement : Marc-Olivier Méhu
Soutien technique & logistique : Manuel Goepfert

Contact : metmap@orbifly.com




SOURCES & CREDITS :

   NOAA